sensor_id;sensor_type;location;lat;lon;timestamp;P1;durP1;ratioP1;P2;durP2;ratioP2
72856;SDS011;62742;52.136;4.500;2023-09-19T00:00:40;7.97;;;1.85;;
72856;SDS011;62742;52.136;4.500;2023-09-19T00:03:07;12.57;;;2.20;;
72856;SDS011;62742;52.136;4.500;2023-09-19T00:05:35;11.88;;;1.77;;
72856;SDS011;62742;52.136;4.500;2023-09-19T00:08:11;10.02;;;1.95;;
72856;SDS011;62742;52.136;4.500;2023-09-19T00:10:39;10.60;;;2.20;;
72856;SDS011;62742;52.136;4.500;2023-09-19T00:13:07;8.65;;;1.55;;
72856;SDS011;62742;52.136;4.500;2023-09-19T00:15:39;9.10;;;1.63;;
72856;SDS011;62742;52.136;4.500;2023-09-19T00:18:15;11.32;;;1.65;;
72856;SDS011;62742;52.136;4.500;2023-09-19T00:20:44;12.68;;;2.03;;
72856;SDS011;62742;52.136;4.500;2023-09-19T00:23:14;9.98;;;1.90;;
72856;SDS011;62742;52.136;4.500;2023-09-19T00:25:41;7.95;;;1.77;;
72856;SDS011;62742;52.136;4.500;2023-09-19T00:28:08;11.18;;;1.90;;
72856;SDS011;62742;52.136;4.500;2023-09-19T00:30:35;8.88;;;2.10;;
72856;SDS011;62742;52.136;4.500;2023-09-19T00:33:04;9.48;;;2.53;;
72856;SDS011;62742;52.136;4.500;2023-09-19T00:35:33;8.75;;;2.28;;
72856;SDS011;62742;52.136;4.500;2023-09-19T00:38:00;12.73;;;2.08;;
72856;SDS011;62742;52.136;4.500;2023-09-19T00:40:27;9.27;;;1.67;;
72856;SDS011;62742;52.136;4.500;2023-09-19T00:42:58;12.70;;;2.55;;
72856;SDS011;62742;52.136;4.500;2023-09-19T00:45:25;10.43;;;2.00;;
72856;SDS011;62742;52.136;4.500;2023-09-19T00:47:52;11.13;;;1.60;;
72856;SDS011;62742;52.136;4.500;2023-09-19T00:50:21;9.43;;;1.98;;
72856;SDS011;62742;52.136;4.500;2023-09-19T00:52:53;12.80;;;2.10;;
72856;SDS011;62742;52.136;4.500;2023-09-19T00:55:25;13.23;;;2.28;;
72856;SDS011;62742;52.136;4.500;2023-09-19T00:57:55;9.75;;;2.35;;
72856;SDS011;62742;52.136;4.500;2023-09-19T01:00:23;10.88;;;2.30;;
72856;SDS011;62742;52.136;4.500;2023-09-19T01:02:50;11.02;;;2.13;;
72856;SDS011;62742;52.136;4.500;2023-09-19T01:05:17;9.20;;;1.98;;
72856;SDS011;62742;52.136;4.500;2023-09-19T01:07:44;11.27;;;2.15;;
72856;SDS011;62742;52.136;4.500;2023-09-19T01:10:12;13.68;;;2.40;;
72856;SDS011;62742;52.136;4.500;2023-09-19T01:17:57;12.30;;;2.42;;
72856;SDS011;62742;52.136;4.500;2023-09-19T01:31:45;8.75;;;1.83;;
72856;SDS011;62742;52.136;4.500;2023-09-19T01:34:13;9.75;;;2.35;;
72856;SDS011;62742;52.136;4.500;2023-09-19T01:36:39;15.02;;;2.53;;
72856;SDS011;62742;52.136;4.500;2023-09-19T01:39:10;13.73;;;2.25;;
72856;SDS011;62742;52.136;4.500;2023-09-19T01:41:41;10.60;;;2.25;;
72856;SDS011;62742;52.136;4.500;2023-09-19T01:47:23;13.15;;;2.35;;
72856;SDS011;62742;52.136;4.500;2023-09-19T01:50:07;11.48;;;2.08;;
72856;SDS011;62742;52.136;4.500;2023-09-19T01:52:57;15.02;;;2.45;;
72856;SDS011;62742;52.136;4.500;2023-09-19T01:55:43;11.77;;;2.33;;
72856;SDS011;62742;52.136;4.500;2023-09-19T01:58:23;18.53;;;2.30;;
72856;SDS011;62742;52.136;4.500;2023-09-19T02:01:11;13.30;;;2.40;;
72856;SDS011;62742;52.136;4.500;2023-09-19T02:03:45;14.38;;;2.63;;
72856;SDS011;62742;52.136;4.500;2023-09-19T02:06:14;13.27;;;2.58;;
72856;SDS011;62742;52.136;4.500;2023-09-19T02:08:43;14.95;;;2.85;;
72856;SDS011;62742;52.136;4.500;2023-09-19T02:11:11;8.80;;;2.10;;
72856;SDS011;62742;52.136;4.500;2023-09-19T02:13:39;14.15;;;2.58;;
72856;SDS011;62742;52.136;4.500;2023-09-19T02:16:06;15.90;;;2.28;;
72856;SDS011;62742;52.136;4.500;2023-09-19T02:18:35;11.80;;;2.30;;
72856;SDS011;62742;52.136;4.500;2023-09-19T02:21:02;16.08;;;2.35;;
72856;SDS011;62742;52.136;4.500;2023-09-19T02:23:30;19.05;;;2.45;;
72856;SDS011;62742;52.136;4.500;2023-09-19T02:25:56;13.95;;;2.33;;
72856;SDS011;62742;52.136;4.500;2023-09-19T02:28:23;11.18;;;2.25;;
72856;SDS011;62742;52.136;4.500;2023-09-19T02:30:50;11.30;;;2.17;;
72856;SDS011;62742;52.136;4.500;2023-09-19T02:33:16;12.45;;;2.30;;
72856;SDS011;62742;52.136;4.500;2023-09-19T02:35:43;12.10;;;2.28;;
72856;SDS011;62742;52.136;4.500;2023-09-19T02:38:10;9.70;;;2.38;;
72856;SDS011;62742;52.136;4.500;2023-09-19T02:40:37;12.55;;;2.45;;
72856;SDS011;62742;52.136;4.500;2023-09-19T02:43:04;9.80;;;2.50;;
72856;SDS011;62742;52.136;4.500;2023-09-19T02:45:31;13.75;;;2.08;;
72856;SDS011;62742;52.136;4.500;2023-09-19T02:47:58;12.55;;;1.80;;
72856;SDS011;62742;52.136;4.500;2023-09-19T02:50:24;10.57;;;2.20;;
72856;SDS011;62742;52.136;4.500;2023-09-19T02:52:51;14.55;;;2.10;;
72856;SDS011;62742;52.136;4.500;2023-09-19T02:55:18;9.85;;;2.13;;
72856;SDS011;62742;52.136;4.500;2023-09-19T02:57:49;9.77;;;2.00;;
72856;SDS011;62742;52.136;4.500;2023-09-19T03:00:22;10.43;;;2.13;;
72856;SDS011;62742;52.136;4.500;2023-09-19T03:02:50;7.75;;;1.70;;
72856;SDS011;62742;52.136;4.500;2023-09-19T03:05:21;14.00;;;2.75;;
72856;SDS011;62742;52.136;4.500;2023-09-19T03:07:49;14.02;;;2.10;;
72856;SDS011;62742;52.136;4.500;2023-09-19T03:10:20;9.77;;;2.35;;
72856;SDS011;62742;52.136;4.500;2023-09-19T03:12:47;10.68;;;2.08;;
72856;SDS011;62742;52.136;4.500;2023-09-19T03:15:15;9.05;;;1.88;;
72856;SDS011;62742;52.136;4.500;2023-09-19T03:17:43;9.13;;;2.03;;
72856;SDS011;62742;52.136;4.500;2023-09-19T03:20:11;12.52;;;2.78;;
72856;SDS011;62742;52.136;4.500;2023-09-19T03:22:39;14.20;;;2.58;;
72856;SDS011;62742;52.136;4.500;2023-09-19T03:25:06;11.68;;;2.00;;
72856;SDS011;62742;52.136;4.500;2023-09-19T03:27:38;11.45;;;2.20;;
72856;SDS011;62742;52.136;4.500;2023-09-19T03:30:05;6.95;;;1.70;;
72856;SDS011;62742;52.136;4.500;2023-09-19T03:32:37;9.20;;;2.05;;
72856;SDS011;62742;52.136;4.500;2023-09-19T03:35:13;8.45;;;1.80;;
72856;SDS011;62742;52.136;4.500;2023-09-19T03:37:42;11.50;;;1.88;;
72856;SDS011;62742;52.136;4.500;2023-09-19T03:40:10;11.85;;;1.83;;
72856;SDS011;62742;52.136;4.500;2023-09-19T03:42:40;9.48;;;1.77;;
72856;SDS011;62742;52.136;4.500;2023-09-19T03:45:08;7.93;;;2.13;;
72856;SDS011;62742;52.136;4.500;2023-09-19T03:47:38;11.05;;;2.30;;
72856;SDS011;62742;52.136;4.500;2023-09-19T03:50:06;7.68;;;1.58;;
72856;SDS011;62742;52.136;4.500;2023-09-19T03:52:34;5.55;;;1.67;;
72856;SDS011;62742;52.136;4.500;2023-09-19T03:55:00;9.75;;;1.80;;
72856;SDS011;62742;52.136;4.500;2023-09-19T03:57:28;9.00;;;1.50;;
72856;SDS011;62742;52.136;4.500;2023-09-19T03:59:54;7.80;;;1.90;;
72856;SDS011;62742;52.136;4.500;2023-09-19T04:02:21;13.75;;;2.05;;
72856;SDS011;62742;52.136;4.500;2023-09-19T04:04:51;9.25;;;2.05;;
72856;SDS011;62742;52.136;4.500;2023-09-19T04:07:18;10.63;;;1.92;;
72856;SDS011;62742;52.136;4.500;2023-09-19T04:09:48;8.95;;;1.88;;
72856;SDS011;62742;52.136;4.500;2023-09-19T04:12:15;10.70;;;1.80;;
72856;SDS011;62742;52.136;4.500;2023-09-19T04:14:42;13.32;;;2.45;;
72856;SDS011;62742;52.136;4.500;2023-09-19T04:17:09;10.25;;;2.10;;
72856;SDS011;62742;52.136;4.500;2023-09-19T04:19:36;9.20;;;2.10;;
72856;SDS011;62742;52.136;4.500;2023-09-19T04:22:03;12.25;;;2.30;;
72856;SDS011;62742;52.136;4.500;2023-09-19T04:24:30;16.15;;;2.13;;
72856;SDS011;62742;52.136;4.500;2023-09-19T04:26:57;12.50;;;2.40;;
72856;SDS011;62742;52.136;4.500;2023-09-19T04:29:25;13.25;;;2.00;;
72856;SDS011;62742;52.136;4.500;2023-09-19T04:31:55;7.43;;;2.05;;
72856;SDS011;62742;52.136;4.500;2023-09-19T04:34:26;14.10;;;2.05;;
72856;SDS011;62742;52.136;4.500;2023-09-19T04:36:54;7.43;;;1.42;;
72856;SDS011;62742;52.136;4.500;2023-09-19T04:39:24;8.93;;;1.77;;
72856;SDS011;62742;52.136;4.500;2023-09-19T04:41:51;7.32;;;1.77;;
72856;SDS011;62742;52.136;4.500;2023-09-19T04:44:18;15.18;;;1.95;;
72856;SDS011;62742;52.136;4.500;2023-09-19T04:46:45;8.60;;;1.67;;
72856;SDS011;62742;52.136;4.500;2023-09-19T04:49:12;10.35;;;1.95;;
72856;SDS011;62742;52.136;4.500;2023-09-19T04:51:39;8.18;;;1.75;;
72856;SDS011;62742;52.136;4.500;2023-09-19T04:54:06;9.55;;;1.63;;
72856;SDS011;62742;52.136;4.500;2023-09-19T04:56:33;10.85;;;2.33;;
72856;SDS011;62742;52.136;4.500;2023-09-19T04:58:59;12.40;;;2.42;;
72856;SDS011;62742;52.136;4.500;2023-09-19T05:01:27;6.60;;;1.70;;
72856;SDS011;62742;52.136;4.500;2023-09-19T05:03:53;8.38;;;1.67;;
72856;SDS011;62742;52.136;4.500;2023-09-19T05:06:20;8.00;;;2.35;;
72856;SDS011;62742;52.136;4.500;2023-09-19T05:08:48;12.48;;;2.00;;
72856;SDS011;62742;52.136;4.500;2023-09-19T05:11:17;10.95;;;1.75;;
72856;SDS011;62742;52.136;4.500;2023-09-19T05:13:48;8.52;;;1.95;;
72856;SDS011;62742;52.136;4.500;2023-09-19T05:16:21;9.82;;;1.77;;
72856;SDS011;62742;52.136;4.500;2023-09-19T05:18:50;10.35;;;1.80;;
72856;SDS011;62742;52.136;4.500;2023-09-19T05:21:18;9.82;;;2.33;;
72856;SDS011;62742;52.136;4.500;2023-09-19T05:23:44;10.98;;;2.47;;
72856;SDS011;62742;52.136;4.500;2023-09-19T05:26:10;9.32;;;2.05;;
72856;SDS011;62742;52.136;4.500;2023-09-19T05:28:38;10.45;;;2.20;;
72856;SDS011;62742;52.136;4.500;2023-09-19T05:31:04;12.10;;;2.30;;
72856;SDS011;62742;52.136;4.500;2023-09-19T05:33:31;11.00;;;2.58;;
72856;SDS011;62742;52.136;4.500;2023-09-19T05:35:58;15.07;;;2.63;;
72856;SDS011;62742;52.136;4.500;2023-09-19T05:38:25;9.93;;;2.20;;
72856;SDS011;62742;52.136;4.500;2023-09-19T05:40:53;11.98;;;2.58;;
72856;SDS011;62742;52.136;4.500;2023-09-19T05:43:19;11.43;;;2.15;;
72856;SDS011;62742;52.136;4.500;2023-09-19T05:45:46;12.27;;;2.55;;
72856;SDS011;62742;52.136;4.500;2023-09-19T05:48:13;10.82;;;2.28;;
72856;SDS011;62742;52.136;4.500;2023-09-19T05:50:41;13.85;;;2.70;;
72856;SDS011;62742;52.136;4.500;2023-09-19T05:53:09;11.68;;;2.50;;
72856;SDS011;62742;52.136;4.500;2023-09-19T05:55:40;12.05;;;1.98;;
72856;SDS011;62742;52.136;4.500;2023-09-19T05:58:07;12.93;;;3.00;;
72856;SDS011;62742;52.136;4.500;2023-09-19T06:00:35;9.95;;;2.17;;
72856;SDS011;62742;52.136;4.500;2023-09-19T06:03:03;10.95;;;2.63;;
72856;SDS011;62742;52.136;4.500;2023-09-19T06:05:30;10.00;;;2.25;;
72856;SDS011;62742;52.136;4.500;2023-09-19T06:07:58;10.98;;;2.80;;
72856;SDS011;62742;52.136;4.500;2023-09-19T06:10:26;13.65;;;2.53;;
72856;SDS011;62742;52.136;4.500;2023-09-19T06:12:55;11.95;;;2.47;;
72856;SDS011;62742;52.136;4.500;2023-09-19T06:15:23;9.60;;;2.35;;
72856;SDS011;62742;52.136;4.500;2023-09-19T06:17:54;16.63;;;2.95;;
72856;SDS011;62742;52.136;4.500;2023-09-19T06:20:22;11.55;;;2.35;;
72856;SDS011;62742;52.136;4.500;2023-09-19T06:22:51;12.25;;;2.58;;
72856;SDS011;62742;52.136;4.500;2023-09-19T06:25:18;12.60;;;2.15;;
72856;SDS011;62742;52.136;4.500;2023-09-19T06:27:49;17.02;;;3.00;;
72856;SDS011;62742;52.136;4.500;2023-09-19T06:30:20;11.55;;;3.10;;
72856;SDS011;62742;52.136;4.500;2023-09-19T06:32:58;14.68;;;2.50;;
72856;SDS011;62742;52.136;4.500;2023-09-19T06:35:26;13.38;;;2.90;;
72856;SDS011;62742;52.136;4.500;2023-09-19T06:37:55;12.70;;;2.80;;
72856;SDS011;62742;52.136;4.500;2023-09-19T06:40:23;16.67;;;3.05;;
72856;SDS011;62742;52.136;4.500;2023-09-19T06:42:50;11.80;;;2.88;;
72856;SDS011;62742;52.136;4.500;2023-09-19T06:45:18;13.38;;;2.35;;
72856;SDS011;62742;52.136;4.500;2023-09-19T06:47:46;14.60;;;2.47;;
72856;SDS011;62742;52.136;4.500;2023-09-19T06:50:20;15.10;;;3.47;;
72856;SDS011;62742;52.136;4.500;2023-09-19T06:52:49;11.30;;;2.33;;
72856;SDS011;62742;52.136;4.500;2023-09-19T06:55:18;15.80;;;2.78;;
72856;SDS011;62742;52.136;4.500;2023-09-19T06:57:46;11.43;;;2.75;;
72856;SDS011;62742;52.136;4.500;2023-09-19T07:00:14;17.60;;;3.33;;
72856;SDS011;62742;52.136;4.500;2023-09-19T07:02:44;17.83;;;3.17;;
72856;SDS011;62742;52.136;4.500;2023-09-19T07:05:11;9.93;;;2.40;;
72856;SDS011;62742;52.136;4.500;2023-09-19T07:07:38;17.83;;;3.08;;
72856;SDS011;62742;52.136;4.500;2023-09-19T07:10:05;13.77;;;2.72;;
72856;SDS011;62742;52.136;4.500;2023-09-19T07:12:32;15.57;;;2.88;;
72856;SDS011;62742;52.136;4.500;2023-09-19T07:14:58;13.30;;;2.90;;
72856;SDS011;62742;52.136;4.500;2023-09-19T07:17:25;14.77;;;2.70;;
72856;SDS011;62742;52.136;4.500;2023-09-19T07:19:51;15.02;;;3.60;;
72856;SDS011;62742;52.136;4.500;2023-09-19T07:22:19;14.43;;;2.83;;
72856;SDS011;62742;52.136;4.500;2023-09-19T07:24:45;12.80;;;2.90;;
72856;SDS011;62742;52.136;4.500;2023-09-19T07:27:12;22.73;;;3.05;;
72856;SDS011;62742;52.136;4.500;2023-09-19T07:29:39;13.65;;;2.67;;
72856;SDS011;62742;52.136;4.500;2023-09-19T07:32:06;15.00;;;2.80;;
72856;SDS011;62742;52.136;4.500;2023-09-19T07:34:36;11.63;;;2.60;;
72856;SDS011;62742;52.136;4.500;2023-09-19T07:37:04;14.05;;;3.38;;
72856;SDS011;62742;52.136;4.500;2023-09-19T07:39:31;14.95;;;2.90;;
72856;SDS011;62742;52.136;4.500;2023-09-19T07:41:57;14.60;;;3.00;;
72856;SDS011;62742;52.136;4.500;2023-09-19T07:44:25;19.13;;;3.35;;
72856;SDS011;62742;52.136;4.500;2023-09-19T07:46:52;13.05;;;2.88;;
72856;SDS011;62742;52.136;4.500;2023-09-19T07:49:19;13.48;;;3.10;;
72856;SDS011;62742;52.136;4.500;2023-09-19T07:51:45;11.48;;;2.95;;
72856;SDS011;62742;52.136;4.500;2023-09-19T07:54:12;13.00;;;2.90;;
72856;SDS011;62742;52.136;4.500;2023-09-19T07:56:40;17.38;;;3.30;;
72856;SDS011;62742;52.136;4.500;2023-09-19T07:59:06;15.07;;;2.97;;
72856;SDS011;62742;52.136;4.500;2023-09-19T08:01:34;12.48;;;3.28;;
72856;SDS011;62742;52.136;4.500;2023-09-19T08:04:01;15.65;;;3.22;;
72856;SDS011;62742;52.136;4.500;2023-09-19T08:06:27;15.57;;;3.58;;
72856;SDS011;62742;52.136;4.500;2023-09-19T08:08:56;17.50;;;2.97;;
72856;SDS011;62742;52.136;4.500;2023-09-19T08:11:26;20.02;;;3.63;;
72856;SDS011;62742;52.136;4.500;2023-09-19T08:13:56;13.45;;;3.55;;
72856;SDS011;62742;52.136;4.500;2023-09-19T08:16:24;12.52;;;3.40;;
72856;SDS011;62742;52.136;4.500;2023-09-19T08:18:50;16.70;;;3.72;;
72856;SDS011;62742;52.136;4.500;2023-09-19T08:21:21;13.32;;;2.75;;
72856;SDS011;62742;52.136;4.500;2023-09-19T08:23:50;12.07;;;3.08;;
72856;SDS011;62742;52.136;4.500;2023-09-19T08:26:16;11.57;;;3.17;;
72856;SDS011;62742;52.136;4.500;2023-09-19T08:28:43;16.27;;;3.60;;
72856;SDS011;62742;52.136;4.500;2023-09-19T08:31:09;13.35;;;3.15;;
72856;SDS011;62742;52.136;4.500;2023-09-19T08:33:36;14.50;;;3.17;;
72856;SDS011;62742;52.136;4.500;2023-09-19T08:36:03;10.60;;;3.17;;
72856;SDS011;62742;52.136;4.500;2023-09-19T08:38:31;12.77;;;3.15;;
72856;SDS011;62742;52.136;4.500;2023-09-19T08:40:59;14.00;;;2.70;;
72856;SDS011;62742;52.136;4.500;2023-09-19T08:43:27;14.40;;;2.90;;
72856;SDS011;62742;52.136;4.500;2023-09-19T08:45:56;12.50;;;2.97;;
72856;SDS011;62742;52.136;4.500;2023-09-19T08:51:30;14.73;;;2.65;;
72856;SDS011;62742;52.136;4.500;2023-09-19T08:54:18;16.52;;;3.45;;
72856;SDS011;62742;52.136;4.500;2023-09-19T08:56:58;15.23;;;2.72;;
72856;SDS011;62742;52.136;4.500;2023-09-19T08:59:34;15.07;;;3.50;;
72856;SDS011;62742;52.136;4.500;2023-09-19T09:02:09;14.20;;;3.78;;
72856;SDS011;62742;52.136;4.500;2023-09-19T09:04:39;14.27;;;2.80;;
72856;SDS011;62742;52.136;4.500;2023-09-19T09:07:12;14.13;;;2.80;;
72856;SDS011;62742;52.136;4.500;2023-09-19T09:09:39;13.50;;;2.65;;
72856;SDS011;62742;52.136;4.500;2023-09-19T09:12:12;13.50;;;2.95;;
72856;SDS011;62742;52.136;4.500;2023-09-19T09:14:44;15.55;;;2.92;;
72856;SDS011;62742;52.136;4.500;2023-09-19T09:17:14;14.77;;;3.13;;
72856;SDS011;62742;52.136;4.500;2023-09-19T09:19:43;17.58;;;2.83;;
72856;SDS011;62742;52.136;4.500;2023-09-19T09:22:10;13.68;;;2.92;;
72856;SDS011;62742;52.136;4.500;2023-09-19T09:24:37;15.95;;;3.53;;
72856;SDS011;62742;52.136;4.500;2023-09-19T09:27:34;13.18;;;2.95;;
72856;SDS011;62742;52.136;4.500;2023-09-19T09:30:00;12.02;;;3.00;;
72856;SDS011;62742;52.136;4.500;2023-09-19T09:32:28;16.52;;;2.97;;
72856;SDS011;62742;52.136;4.500;2023-09-19T09:34:59;15.77;;;2.92;;
72856;SDS011;62742;52.136;4.500;2023-09-19T09:37:27;12.70;;;3.45;;
72856;SDS011;62742;52.136;4.500;2023-09-19T09:39:59;18.38;;;3.38;;
72856;SDS011;62742;52.136;4.500;2023-09-19T09:42:40;14.43;;;3.10;;
72856;SDS011;62742;52.136;4.500;2023-09-19T09:45:23;13.65;;;2.60;;
72856;SDS011;62742;52.136;4.500;2023-09-19T09:48:00;15.13;;;2.90;;
72856;SDS011;62742;52.136;4.500;2023-09-19T09:50:30;14.15;;;2.88;;
72856;SDS011;62742;52.136;4.500;2023-09-19T09:53:25;11.30;;;2.55;;
72856;SDS011;62742;52.136;4.500;2023-09-19T09:56:08;15.77;;;2.63;;
72856;SDS011;62742;52.136;4.500;2023-09-19T09:58:36;13.77;;;2.55;;
72856;SDS011;62742;52.136;4.500;2023-09-19T10:01:18;10.45;;;2.15;;
72856;SDS011;62742;52.136;4.500;2023-09-19T10:03:46;14.50;;;3.10;;
72856;SDS011;62742;52.136;4.500;2023-09-19T10:06:18;13.80;;;2.67;;
72856;SDS011;62742;52.136;4.500;2023-09-19T10:08:59;14.98;;;2.75;;
72856;SDS011;62742;52.136;4.500;2023-09-19T10:11:47;14.77;;;2.60;;
72856;SDS011;62742;52.136;4.500;2023-09-19T10:14:24;12.38;;;2.17;;
72856;SDS011;62742;52.136;4.500;2023-09-19T10:16:58;12.15;;;1.90;;
72856;SDS011;62742;52.136;4.500;2023-09-19T10:19:39;10.07;;;2.42;;
72856;SDS011;62742;52.136;4.500;2023-09-19T10:22:14;11.18;;;2.30;;
72856;SDS011;62742;52.136;4.500;2023-09-19T10:24:48;11.00;;;2.35;;
72856;SDS011;62742;52.136;4.500;2023-09-19T10:27:21;12.40;;;2.88;;
72856;SDS011;62742;52.136;4.500;2023-09-19T10:29:52;12.35;;;2.70;;
72856;SDS011;62742;52.136;4.500;2023-09-19T10:32:22;8.90;;;2.38;;
72856;SDS011;62742;52.136;4.500;2023-09-19T10:34:49;9.75;;;2.00;;
72856;SDS011;62742;52.136;4.500;2023-09-19T10:37:17;11.63;;;2.55;;
72856;SDS011;62742;52.136;4.500;2023-09-19T10:39:48;7.95;;;2.05;;
72856;SDS011;62742;52.136;4.500;2023-09-19T10:42:19;12.70;;;2.35;;
72856;SDS011;62742;52.136;4.500;2023-09-19T10:44:51;11.20;;;2.30;;
72856;SDS011;62742;52.136;4.500;2023-09-19T10:47:21;17.23;;;2.53;;
72856;SDS011;62742;52.136;4.500;2023-09-19T10:49:51;13.10;;;2.60;;
72856;SDS011;62742;52.136;4.500;2023-09-19T10:52:21;15.50;;;2.92;;
72856;SDS011;62742;52.136;4.500;2023-09-19T10:54:53;11.80;;;2.03;;
72856;SDS011;62742;52.136;4.500;2023-09-19T10:57:25;8.48;;;1.70;;
72856;SDS011;62742;52.136;4.500;2023-09-19T11:00:00;10.63;;;2.17;;
72856;SDS011;62742;52.136;4.500;2023-09-19T11:03:35;11.68;;;2.60;;
72856;SDS011;62742;52.136;4.500;2023-09-19T11:05:39;12.15;;;2.30;;
72856;SDS011;62742;52.136;4.500;2023-09-19T11:08:07;6.47;;;1.90;;
72856;SDS011;62742;52.136;4.500;2023-09-19T11:13:28;8.68;;;2.30;;
72856;SDS011;62742;52.136;4.500;2023-09-19T11:16:04;11.05;;;1.88;;
72856;SDS011;62742;52.136;4.500;2023-09-19T11:26:48;10.27;;;2.17;;
72856;SDS011;62742;52.136;4.500;2023-09-19T11:29:25;8.02;;;1.67;;
72856;SDS011;62742;52.136;4.500;2023-09-19T11:31:57;5.32;;;1.65;;
72856;SDS011;62742;52.136;4.500;2023-09-19T11:39:39;8.80;;;1.92;;
72856;SDS011;62742;52.136;4.500;2023-09-19T11:42:46;8.60;;;1.90;;
72856;SDS011;62742;52.136;4.500;2023-09-19T11:48:23;7.07;;;1.67;;
72856;SDS011;62742;52.136;4.500;2023-09-19T11:50:53;5.78;;;1.45;;
72856;SDS011;62742;52.136;4.500;2023-09-19T11:53:21;7.88;;;1.70;;
72856;SDS011;62742;52.136;4.500;2023-09-19T11:55:58;10.55;;;1.70;;
72856;SDS011;62742;52.136;4.500;2023-09-19T11:58:26;9.90;;;2.00;;
72856;SDS011;62742;52.136;4.500;2023-09-19T12:00:55;8.07;;;1.90;;
72856;SDS011;62742;52.136;4.500;2023-09-19T12:03:29;11.90;;;2.15;;
72856;SDS011;62742;52.136;4.500;2023-09-19T12:05:58;11.32;;;2.47;;
72856;SDS011;62742;52.136;4.500;2023-09-19T12:08:25;7.80;;;1.75;;
72856;SDS011;62742;52.136;4.500;2023-09-19T12:10:53;8.90;;;1.92;;
72856;SDS011;62742;52.136;4.500;2023-09-19T12:13:21;11.90;;;1.90;;
72856;SDS011;62742;52.136;4.500;2023-09-19T12:15:47;10.70;;;2.15;;
72856;SDS011;62742;52.136;4.500;2023-09-19T12:18:27;8.40;;;1.92;;
72856;SDS011;62742;52.136;4.500;2023-09-19T12:20:55;10.48;;;2.50;;
72856;SDS011;62742;52.136;4.500;2023-09-19T12:23:24;11.40;;;2.60;;
72856;SDS011;62742;52.136;4.500;2023-09-19T12:25:54;7.75;;;2.08;;
72856;SDS011;62742;52.136;4.500;2023-09-19T12:28:24;7.13;;;1.75;;
72856;SDS011;62742;52.136;4.500;2023-09-19T12:30:56;10.38;;;2.33;;
72856;SDS011;62742;52.136;4.500;2023-09-19T12:33:23;8.48;;;2.58;;
72856;SDS011;62742;52.136;4.500;2023-09-19T12:35:53;12.52;;;2.67;;
72856;SDS011;62742;52.136;4.500;2023-09-19T12:38:26;7.68;;;2.38;;
72856;SDS011;62742;52.136;4.500;2023-09-19T12:40:57;7.57;;;2.17;;
72856;SDS011;62742;52.136;4.500;2023-09-19T12:43:26;10.43;;;2.10;;
72856;SDS011;62742;52.136;4.500;2023-09-19T12:45:58;8.13;;;1.92;;
72856;SDS011;62742;52.136;4.500;2023-09-19T12:48:25;9.95;;;1.92;;
72856;SDS011;62742;52.136;4.500;2023-09-19T12:51:06;7.45;;;2.10;;
72856;SDS011;62742;52.136;4.500;2023-09-19T12:56:12;6.80;;;2.47;;
72856;SDS011;62742;52.136;4.500;2023-09-19T12:58:57;8.73;;;2.03;;
72856;SDS011;62742;52.136;4.500;2023-09-19T13:01:26;12.65;;;2.20;;
72856;SDS011;62742;52.136;4.500;2023-09-19T13:06:55;9.85;;;2.00;;
72856;SDS011;62742;52.136;4.500;2023-09-19T13:09:27;7.65;;;1.90;;
72856;SDS011;62742;52.136;4.500;2023-09-19T13:12:05;12.00;;;1.92;;
72856;SDS011;62742;52.136;4.500;2023-09-19T13:15:09;7.65;;;2.17;;
72856;SDS011;62742;52.136;4.500;2023-09-19T13:17:42;8.73;;;2.00;;
72856;SDS011;62742;52.136;4.500;2023-09-19T13:20:26;11.20;;;2.22;;
72856;SDS011;62742;52.136;4.500;2023-09-19T13:22:53;11.73;;;2.08;;
72856;SDS011;62742;52.136;4.500;2023-09-19T13:25:25;8.30;;;2.20;;
72856;SDS011;62742;52.136;4.500;2023-09-19T13:27:57;13.98;;;2.30;;
72856;SDS011;62742;52.136;4.500;2023-09-19T13:30:24;10.07;;;2.55;;
72856;SDS011;62742;52.136;4.500;2023-09-19T13:33:07;11.13;;;2.55;;
72856;SDS011;62742;52.136;4.500;2023-09-19T13:35:36;6.88;;;2.13;;
72856;SDS011;62742;52.136;4.500;2023-09-19T13:38:06;9.27;;;2.50;;
72856;SDS011;62742;52.136;4.500;2023-09-19T13:40:38;8.48;;;2.55;;
72856;SDS011;62742;52.136;4.500;2023-09-19T13:43:05;10.90;;;2.90;;
72856;SDS011;62742;52.136;4.500;2023-09-19T13:45:32;12.40;;;2.60;;
72856;SDS011;62742;52.136;4.500;2023-09-19T13:47:59;12.75;;;2.72;;
72856;SDS011;62742;52.136;4.500;2023-09-19T13:50:26;11.40;;;2.72;;
72856;SDS011;62742;52.136;4.500;2023-09-19T13:52:55;12.07;;;3.10;;
72856;SDS011;62742;52.136;4.500;2023-09-19T13:55:21;16.67;;;3.25;;
72856;SDS011;62742;52.136;4.500;2023-09-19T13:57:48;10.23;;;2.72;;
72856;SDS011;62742;52.136;4.500;2023-09-19T14:00:22;12.38;;;3.63;;
72856;SDS011;62742;52.136;4.500;2023-09-19T14:02:50;13.82;;;3.33;;
72856;SDS011;62742;52.136;4.500;2023-09-19T14:05:17;15.80;;;3.33;;
72856;SDS011;62742;52.136;4.500;2023-09-19T14:07:44;15.85;;;4.50;;
72856;SDS011;62742;52.136;4.500;2023-09-19T14:10:11;16.27;;;3.75;;
72856;SDS011;62742;52.136;4.500;2023-09-19T14:12:38;15.15;;;3.90;;
72856;SDS011;62742;52.136;4.500;2023-09-19T14:15:09;14.05;;;3.67;;
72856;SDS011;62742;52.136;4.500;2023-09-19T14:17:37;12.27;;;3.05;;
72856;SDS011;62742;52.136;4.500;2023-09-19T14:20:08;15.25;;;3.53;;
72856;SDS011;62742;52.136;4.500;2023-09-19T14:22:36;11.30;;;2.88;;
72856;SDS011;62742;52.136;4.500;2023-09-19T14:25:04;14.60;;;3.47;;
72856;SDS011;62742;52.136;4.500;2023-09-19T14:27:31;12.73;;;2.58;;
72856;SDS011;62742;52.136;4.500;2023-09-19T14:29:58;15.05;;;3.63;;
72856;SDS011;62742;52.136;4.500;2023-09-19T14:32:24;10.23;;;2.75;;
72856;SDS011;62742;52.136;4.500;2023-09-19T14:34:51;14.88;;;2.65;;
72856;SDS011;62742;52.136;4.500;2023-09-19T14:37:18;15.15;;;3.63;;
72856;SDS011;62742;52.136;4.500;2023-09-19T14:39:47;13.70;;;3.05;;
72856;SDS011;62742;52.136;4.500;2023-09-19T14:42:13;11.93;;;3.08;;
72856;SDS011;62742;52.136;4.500;2023-09-19T14:44:43;12.63;;;2.95;;
72856;SDS011;62742;52.136;4.500;2023-09-19T14:47:10;10.45;;;2.75;;
72856;SDS011;62742;52.136;4.500;2023-09-19T14:49:39;23.00;;;3.50;;
72856;SDS011;62742;52.136;4.500;2023-09-19T14:52:07;8.90;;;2.80;;
72856;SDS011;62742;52.136;4.500;2023-09-19T14:54:36;10.23;;;2.92;;
72856;SDS011;62742;52.136;4.500;2023-09-19T14:57:07;15.02;;;3.35;;
72856;SDS011;62742;52.136;4.500;2023-09-19T14:59:35;15.38;;;3.83;;
72856;SDS011;62742;52.136;4.500;2023-09-19T15:02:03;15.18;;;4.20;;
72856;SDS011;62742;52.136;4.500;2023-09-19T15:04:30;15.77;;;3.67;;
72856;SDS011;62742;52.136;4.500;2023-09-19T15:06:57;16.30;;;4.07;;
72856;SDS011;62742;52.136;4.500;2023-09-19T15:09:24;17.67;;;4.18;;
72856;SDS011;62742;52.136;4.500;2023-09-19T15:11:52;10.82;;;3.50;;
72856;SDS011;62742;52.136;4.500;2023-09-19T15:14:19;20.48;;;3.92;;
72856;SDS011;62742;52.136;4.500;2023-09-19T15:16:47;14.50;;;3.75;;
72856;SDS011;62742;52.136;4.500;2023-09-19T15:19:14;18.23;;;4.07;;
72856;SDS011;62742;52.136;4.500;2023-09-19T15:21:41;12.30;;;3.75;;
72856;SDS011;62742;52.136;4.500;2023-09-19T15:24:07;13.13;;;3.90;;
72856;SDS011;62742;52.136;4.500;2023-09-19T15:26:37;17.15;;;4.07;;
72856;SDS011;62742;52.136;4.500;2023-09-19T15:29:09;17.77;;;4.85;;
72856;SDS011;62742;52.136;4.500;2023-09-19T15:31:36;13.55;;;4.43;;
72856;SDS011;62742;52.136;4.500;2023-09-19T15:34:03;19.92;;;4.45;;
72856;SDS011;62742;52.136;4.500;2023-09-19T15:36:31;18.00;;;4.80;;
72856;SDS011;62742;52.136;4.500;2023-09-19T15:38:59;17.05;;;4.95;;
72856;SDS011;62742;52.136;4.500;2023-09-19T15:41:31;18.75;;;5.70;;